Time;durP1;ratioP1;P1;durP2;ratioP2;P2;SDS_P1;SDS_P2;PMS_P1;PMS_P2;Temp;Humidity;BMP_temperature;BMP_pressure;BME280_temperature;BME280_humidity;BME280_pressure;Samples;Min_cycle;Max_cycle;Signal;HPM_P1;HPM_P2
2023/11/20 00:01:33;;;;;;;2.50;1.85;;;;;;;7.95;48.71;99459.59;5051289;28;20056;-27
2023/11/20 00:04:00;;;;;;;3.83;2.10;;;;;;;8.04;48.87;99463.75;5036631;28;20033;-26
2023/11/20 00:06:26;;;;;;;3.10;2.20;;;;;;;8.01;48.60;99464.13;5031921;28;20027;-26
2023/11/20 00:08:52;;;;;;;3.30;1.83;;;;;;;7.93;48.53;99469.59;5031874;28;20056;-26
2023/11/20 00:11:18;;;;;;;3.60;2.20;;;;;;;8.05;48.46;99465.38;5031617;28;20130;-25
2023/11/20 00:13:44;;;;;;;2.97;2.10;;;;;;;7.97;48.55;99474.28;5031262;28;20033;-25
2023/11/20 00:16:12;;;;;;;2.42;1.85;;;;;;;8.21;47.83;99459.78;5031593;28;20116;-25
2023/11/20 00:18:38;;;;;;;2.60;2.00;;;;;;;8.38;47.09;99470.91;5031458;28;20470;-25
2023/11/20 00:21:04;;;;;;;3.85;1.98;;;;;;;8.11;47.69;99467.28;5031251;28;20034;-24
2023/11/20 00:23:29;;;;;;;3.47;1.95;;;;;;;8.01;47.64;99472.91;5031312;28;20121;-26
2023/11/20 00:25:55;;;;;;;2.55;1.90;;;;;;;8.19;46.98;99475.06;5029792;28;20029;-25
2023/11/20 00:28:20;;;;;;;3.22;1.95;;;;;;;7.94;47.10;99471.19;5031743;28;20079;-25
2023/11/20 00:30:46;;;;;;;3.20;1.92;;;;;;;8.01;47.01;99490.63;5034788;28;20444;-25
2023/11/20 00:33:11;;;;;;;4.15;1.92;;;;;;;8.37;46.47;99494.94;5034711;28;20030;-26
2023/11/20 00:35:36;;;;;;;3.20;1.75;;;;;;;8.45;46.18;99496.66;5035098;28;20029;-25
2023/11/20 00:38:03;;;;;;;2.08;1.60;;;;;;;8.39;46.25;99504.34;5034908;28;20112;-24
2023/11/20 00:40:29;;;;;;;2.60;1.88;;;;;;;8.48;46.03;99488.31;5034851;28;20458;-25
2023/11/20 00:42:54;;;;;;;3.70;1.95;;;;;;;8.36;45.98;99498.63;5035087;28;20071;-26
2023/11/20 00:45:20;;;;;;;2.90;1.80;;;;;;;8.40;45.69;99491.91;5034731;28;20022;-25
2023/11/20 00:47:45;;;;;;;3.78;1.80;;;;;;;8.38;45.61;99488.66;5034762;28;20026;-25
2023/11/20 00:50:10;;;;;;;3.45;1.80;;;;;;;8.47;45.43;99484.00;5034650;28;20092;-25
2023/11/20 00:52:36;;;;;;;3.72;2.10;;;;;;;8.39;46.28;99484.97;5034905;28;20535;-26
2023/11/20 00:55:09;;;;;;;2.95;2.00;;;;;;;8.30;46.35;99496.72;5035270;28;20032;-25
2023/11/20 00:57:38;;;;;;;2.58;1.88;;;;;;;8.26;46.79;99496.28;5034843;28;20362;-25
2023/11/20 01:00:07;;;;;;;2.55;1.85;;;;;;;8.31;46.73;99493.88;5045344;28;20021;-25
2023/11/20 01:02:33;;;;;;;2.60;1.70;;;;;;;8.43;46.32;99488.88;5050264;28;20421;-25
2023/11/20 01:04:59;;;;;;;1.73;1.38;;;;;;;8.23;46.37;99491.41;5034529;28;20583;-25
2023/11/20 01:07:25;;;;;;;2.00;1.70;;;;;;;8.51;45.77;99479.94;5034731;28;20044;-25
2023/11/20 01:09:50;;;;;;;2.80;1.88;;;;;;;8.56;45.99;99475.69;5034552;28;20385;-25
2023/11/20 01:12:16;;;;;;;2.95;1.85;;;;;;;8.60;45.48;99466.34;5034460;28;20037;-25
2023/11/20 01:14:41;;;;;;;3.90;1.60;;;;;;;8.43;45.71;99480.94;5034375;28;20017;-26
2023/11/20 01:17:06;;;;;;;2.25;1.60;;;;;;;8.63;45.02;99485.53;5034523;28;20040;-25
2023/11/20 01:19:32;;;;;;;2.20;1.50;;;;;;;8.63;45.19;99488.19;5034179;28;20029;-25
2023/11/20 01:21:57;;;;;;;2.83;1.80;;;;;;;8.68;44.66;99493.69;5033963;28;20021;-25
2023/11/20 01:24:23;;;;;;;2.28;1.50;;;;;;;8.80;44.93;99481.53;5033920;28;20033;-26
2023/11/20 01:26:49;;;;;;;2.55;1.70;;;;;;;8.76;45.29;99496.22;5034369;28;20026;-25
2023/11/20 01:29:14;;;;;;;2.17;1.70;;;;;;;8.63;45.97;99494.31;5033977;28;20029;-26
2023/11/20 01:31:40;;;;;;;2.40;1.75;;;;;;;8.74;46.21;99491.09;5033844;28;20025;-25
2023/11/20 01:34:05;;;;;;;2.65;1.70;;;;;;;9.06;45.94;99486.09;5033925;28;20567;-26
2023/11/20 01:36:31;;;;;;;1.77;1.52;;;;;;;8.88;46.06;99491.97;5034051;28;20028;-26
2023/11/20 01:38:56;;;;;;;2.90;1.33;;;;;;;8.97;45.81;99477.50;5033823;28;20024;-25
2023/11/20 01:41:22;;;;;;;2.15;1.70;;;;;;;8.92;46.14;99466.66;5033128;28;20049;-26
2023/11/20 01:43:47;;;;;;;2.08;1.55;;;;;;;9.04;45.68;99477.50;5033724;28;20021;-25
2023/11/20 01:46:14;;;;;;;2.42;1.60;;;;;;;9.06;46.04;99474.66;5033688;28;20028;-27
2023/11/20 01:48:41;;;;;;;2.08;1.70;;;;;;;9.07;45.29;99484.28;5033508;28;20156;-26
2023/11/20 01:51:06;;;;;;;1.73;1.40;;;;;;;9.21;45.28;99480.63;5033643;28;20021;-25
2023/11/20 01:53:34;;;;;;;2.22;1.50;;;;;;;9.39;44.91;99480.88;5033487;28;20040;-25
2023/11/20 01:56:00;;;;;;;1.63;1.30;;;;;;;9.60;43.95;99484.38;5033408;28;20036;-26
2023/11/20 01:58:26;;;;;;;1.63;1.40;;;;;;;9.61;43.82;99488.66;5033577;28;20029;-25
2023/11/20 02:00:52;;;;;;;1.92;1.50;;;;;;;9.65;43.27;99471.28;5033412;28;20060;-25
2023/11/20 02:03:19;;;;;;;2.03;1.48;;;;;;;9.92;42.54;99473.97;5042527;28;20032;-27
2023/11/20 02:05:44;;;;;;;1.63;1.45;;;;;;;9.92;42.66;99469.44;5053184;28;20503;-26
2023/11/20 02:08:10;;;;;;;1.63;1.35;;;;;;;9.63;43.58;99464.53;5053378;28;20028;-26
2023/11/20 02:10:36;;;;;;;2.05;1.50;;;;;;;9.87;44.11;99465.78;5053083;28;20124;-26
2023/11/20 02:13:04;;;;;;;1.83;1.30;;;;;;;9.79;44.52;99458.81;5053156;28;20032;-26
2023/11/20 02:15:30;;;;;;;2.00;1.45;;;;;;;10.01;44.18;99451.44;5053020;28;20096;-26
2023/11/20 02:17:55;;;;;;;1.77;1.20;;;;;;;10.07;44.49;99455.94;5050778;28;20116;-26
2023/11/20 02:20:24;;;;;;;1.77;1.20;;;;;;;10.67;43.64;99462.97;5033183;28;20525;-26
2023/11/20 02:22:50;;;;;;;1.47;1.10;;;;;;;10.74;43.85;99463.75;5043187;28;20142;-26
2023/11/20 02:25:17;;;;;;;1.40;0.95;;;;;;;10.78;43.75;99467.63;5053167;28;20611;-26
2023/11/20 02:28:05;;;;;;;1.55;1.23;;;;;;;10.50;44.70;99455.44;5053195;28;20050;-26
2023/11/20 02:30:31;;;;;;;2.28;1.40;;;;;;;10.74;44.34;99458.44;5052980;28;20098;-26
2023/11/20 02:32:56;;;;;;;1.60;1.50;;;;;;;10.86;43.83;99454.06;5052705;28;20021;-26
2023/11/20 02:35:24;;;;;;;2.08;1.40;;;;;;;10.92;44.15;99455.88;5053046;28;20099;-26
2023/11/20 02:37:49;;;;;;;1.60;1.35;;;;;;;10.69;44.83;99455.59;5052852;28;20457;-26
2023/11/20 02:40:15;;;;;;;1.65;1.40;;;;;;;10.73;44.60;99446.16;5052741;28;20078;-26
2023/11/20 02:42:41;;;;;;;1.95;1.50;;;;;;;10.75;44.13;99442.25;5052533;28;20039;-26
2023/11/20 02:45:07;;;;;;;2.08;1.42;;;;;;;10.67;44.65;99441.69;5052573;28;20016;-26
2023/11/20 02:47:34;;;;;;;1.92;1.50;;;;;;;10.71;45.04;99438.38;5052843;28;20020;-27
2023/11/20 02:50:00;;;;;;;1.90;1.48;;;;;;;10.90;44.35;99449.94;5052565;28;20036;-26
2023/11/20 02:52:25;;;;;;;2.60;1.55;;;;;;;10.45;45.68;99454.44;5051396;28;20025;-26
2023/11/20 02:54:50;;;;;;;1.20;1.10;;;;;;;10.37;46.65;99468.78;5051982;28;20107;-26
2023/11/20 02:57:16;;;;;;;1.42;1.20;;;;;;;10.57;45.30;99466.88;5052137;28;20024;-25
2023/11/20 02:59:41;;;;;;;1.92;1.33;;;;;;;10.09;45.57;99459.22;5052122;28;20028;-26
2023/11/20 03:02:07;;;;;;;2.08;1.35;;;;;;;10.62;44.23;99447.63;5051416;28;20043;-26
2023/11/20 03:04:32;;;;;;;2.33;1.40;;;;;;;10.69;43.99;99434.28;5032314;28;20041;-26
2023/11/20 03:06:57;;;;;;;1.60;1.40;;;;;;;10.69;43.60;99428.97;5038629;28;20152;-27
2023/11/20 03:09:23;;;;;;;2.10;1.30;;;;;;;10.58;44.18;99422.47;5052344;28;20025;-26
2023/11/20 03:11:48;;;;;;;1.40;1.20;;;;;;;10.55;43.43;99423.72;5052302;28;20078;-26
2023/11/20 03:14:14;;;;;;;1.35;1.00;;;;;;;10.64;43.35;99421.63;5052233;28;20362;-26
2023/11/20 03:16:40;;;;;;;2.03;1.30;;;;;;;10.69;43.78;99415.66;5052101;28;20100;-26
2023/11/20 03:19:05;;;;;;;2.03;1.30;;;;;;;10.95;42.57;99417.38;5051881;28;20102;-25
2023/11/20 03:21:33;;;;;;;1.98;1.40;;;;;;;10.53;43.67;99416.97;5051518;28;20017;-26
2023/11/20 03:23:59;;;;;;;1.10;1.00;;;;;;;10.54;43.46;99419.41;5052413;28;20115;-26
2023/11/20 03:26:26;;;;;;;1.80;1.35;;;;;;;10.67;44.18;99425.72;5051748;28;20445;-26
2023/11/20 03:28:51;;;;;;;1.85;1.45;;;;;;;10.53;44.78;99417.78;5052045;28;20021;-26
2023/11/20 03:31:18;;;;;;;1.63;1.20;;;;;;;10.47;44.26;99418.63;5051336;28;20029;-26
2023/11/20 03:33:46;;;;;;;1.65;1.10;;;;;;;10.82;44.50;99423.59;5051983;28;20091;-26
2023/11/20 03:36:15;;;;;;;1.48;1.25;;;;;;;10.69;44.63;99434.28;5051713;28;20048;-26
2023/11/20 03:38:41;;;;;;;1.90;1.50;;;;;;;10.52;45.61;99426.78;5051407;28;20104;-26
2023/11/20 03:41:08;;;;;;;2.47;1.27;;;;;;;10.76;45.28;99430.56;5051770;28;20397;-26
2023/11/20 03:43:34;;;;;;;1.83;1.23;;;;;;;10.78;44.83;99421.56;5052036;28;20066;-26
2023/11/20 03:46:00;;;;;;;1.60;1.20;;;;;;;10.55;45.53;99425.56;5051463;28;20657;-26
2023/11/20 03:48:26;;;;;;;1.83;1.38;;;;;;;10.65;45.47;99428.56;5051514;28;20123;-26
2023/11/20 03:50:51;;;;;;;2.50;1.10;;;;;;;10.67;45.22;99429.19;5051664;28;20048;-26
2023/11/20 03:53:17;;;;;;;1.58;1.30;;;;;;;10.67;45.44;99434.50;5051407;28;20056;-26
2023/11/20 03:55:42;;;;;;;1.90;1.33;;;;;;;10.84;44.99;99421.53;5051419;28;20074;-26
2023/11/20 03:58:07;;;;;;;2.10;1.42;;;;;;;10.54;45.09;99429.22;5051423;28;20103;-26
2023/11/20 04:00:33;;;;;;;2.08;1.40;;;;;;;10.76;44.85;99427.09;5051207;28;20091;-26
2023/11/20 04:02:59;;;;;;;1.40;0.95;;;;;;;10.91;44.85;99421.50;5044850;28;20030;-26
2023/11/20 04:05:25;;;;;;;3.45;1.45;;;;;;;10.80;45.19;99422.97;5031417;28;20025;-26
2023/11/20 04:07:50;;;;;;;1.75;1.25;;;;;;;11.05;44.52;99423.03;5031018;28;20040;-26
2023/11/20 04:10:16;;;;;;;1.90;1.33;;;;;;;11.10;44.56;99425.91;5031276;28;20470;-26
2023/11/20 04:12:44;;;;;;;6.70;4.20;;;;;;;10.74;45.65;99429.97;5031057;28;20034;-26
2023/11/20 04:15:09;;;;;;;2.78;1.80;;;;;;;10.78;45.21;99416.25;5030458;28;20635;-26
2023/11/20 04:17:35;;;;;;;1.75;1.48;;;;;;;10.73;45.16;99416.88;5030498;28;20116;-26
2023/11/20 04:20:01;;;;;;;1.80;1.40;;;;;;;10.50;45.40;99409.41;5030608;28;20052;-26
2023/11/20 04:22:27;;;;;;;1.77;1.20;;;;;;;10.41;45.31;99429.28;5030859;28;20033;-26
2023/11/20 04:24:52;;;;;;;2.10;1.52;;;;;;;10.49;45.74;99429.88;5030300;28;20041;-26
2023/11/20 04:27:17;;;;;;;1.98;1.52;;;;;;;10.40;46.08;99441.78;5030510;28;20052;-26
2023/11/20 04:29:43;;;;;;;2.53;1.60;;;;;;;10.61;46.25;99442.53;5030327;28;20048;-26
2023/11/20 04:32:09;;;;;;;2.20;1.50;;;;;;;10.43;46.97;99432.56;5028893;28;20036;-26
2023/11/20 04:34:35;;;;;;;4.10;1.70;;;;;;;10.56;45.64;99427.97;5030289;28;20037;-26
2023/11/20 04:37:00;;;;;;;2.20;1.60;;;;;;;10.32;46.30;99437.50;5030335;28;20147;-26
2023/11/20 04:39:26;;;;;;;1.65;1.30;;;;;;;10.46;46.28;99440.94;5030482;28;20041;-26
2023/11/20 04:41:51;;;;;;;2.88;1.50;;;;;;;10.21;46.66;99435.44;5030544;28;20079;-25
2023/11/20 04:44:17;;;;;;;1.80;1.40;;;;;;;10.32;46.49;99445.47;5030502;28;20052;-26
2023/11/20 04:46:42;;;;;;;2.10;1.35;;;;;;;10.40;46.65;99443.63;5030291;28;20025;-26
2023/11/20 04:49:08;;;;;;;2.45;1.67;;;;;;;10.30;47.30;99450.19;5030587;28;20455;-26
2023/11/20 04:51:33;;;;;;;2.53;2.00;;;;;;;10.40;47.10;99447.09;5030298;28;20029;-26
2023/11/20 04:53:59;;;;;;;3.35;2.00;;;;;;;10.59;45.96;99436.59;5030283;28;20474;-26
2023/11/20 04:56:24;;;;;;;4.10;2.40;;;;;;;10.35;47.79;99437.06;5030003;28;20030;-26
2023/11/20 04:58:49;;;;;;;3.08;1.90;;;;;;;10.17;47.65;99432.38;5030130;28;20033;-26
2023/11/20 05:01:15;;;;;;;2.63;1.90;;;;;;;10.14;47.35;99424.00;5030111;28;20049;-27
2023/11/20 05:03:42;;;;;;;2.20;1.60;;;;;;;10.40;46.46;99423.16;5042763;28;20052;-27
2023/11/20 05:06:09;;;;;;;1.88;1.52;;;;;;;10.62;46.50;99423.66;5050458;28;20029;-26
2023/11/20 05:08:36;;;;;;;2.28;1.38;;;;;;;10.81;45.49;99411.28;5050276;28;20403;-27
2023/11/20 05:11:02;;;;;;;2.90;1.50;;;;;;;10.78;46.28;99410.94;5050727;28;20029;-27
2023/11/20 05:13:28;;;;;;;2.42;1.35;;;;;;;10.77;46.22;99415.41;5050329;28;20051;-27
2023/11/20 05:15:53;;;;;;;3.10;1.50;;;;;;;10.94;45.68;99419.22;5051568;28;20400;-27
2023/11/20 05:18:19;;;;;;;1.65;1.33;;;;;;;11.07;45.44;99425.50;5053744;28;20102;-27
2023/11/20 05:20:44;;;;;;;2.53;1.38;;;;;;;11.10;45.63;99431.22;5050461;28;20406;-27
2023/11/20 05:23:10;;;;;;;5.18;3.60;;;;;;;10.78;46.14;99433.03;5033917;28;20093;-27
2023/11/20 05:25:36;;;;;;;4.20;1.77;;;;;;;10.92;46.55;99426.59;5034019;28;20052;-26
2023/11/20 05:28:01;;;;;;;2.75;1.30;;;;;;;11.02;46.26;99418.13;5033965;28;20465;-26
2023/11/20 05:30:27;;;;;;;2.28;1.50;;;;;;;11.25;45.74;99420.28;5034162;28;20021;-27
2023/11/20 05:32:52;;;;;;;2.15;1.40;;;;;;;11.49;44.94;99420.50;5033829;28;20099;-27
2023/11/20 05:35:19;;;;;;;2.13;1.63;;;;;;;11.67;44.16;99433.88;5033438;28;20026;-28
2023/11/20 05:37:45;;;;;;;1.98;1.35;;;;;;;11.59;44.44;99428.81;5034279;28;20025;-27
2023/11/20 05:40:11;;;;;;;2.33;1.20;;;;;;;12.08;43.88;99439.69;5053581;28;20112;-27
2023/11/20 05:42:36;;;;;;;3.08;1.50;;;;;;;12.22;42.83;99435.03;5053342;28;20016;-27
2023/11/20 05:45:02;;;;;;;3.88;1.40;;;;;;;12.31;42.66;99436.38;5054112;28;20025;-27
2023/11/20 05:47:27;;;;;;;1.40;1.30;;;;;;;12.32;42.96;99452.16;5053791;28;20025;-28
2023/11/20 05:49:53;;;;;;;2.10;1.40;;;;;;;12.51;42.59;99442.28;5053650;28;20399;-27
2023/11/20 05:52:18;;;;;;;1.42;1.33;;;;;;;12.54;42.91;99443.69;5052482;28;20108;-26
2023/11/20 05:54:44;;;;;;;2.88;1.70;;;;;;;12.56;42.58;99452.28;5051400;28;20025;-27
2023/11/20 05:57:10;;;;;;;2.33;1.52;;;;;;;12.80;42.30;99455.09;5051195;28;20055;-26
2023/11/20 05:59:36;;;;;;;2.72;1.80;;;;;;;13.23;41.76;99452.25;5051118;28;20032;-28
2023/11/20 06:02:01;;;;;;;5.65;2.80;;;;;;;13.45;41.33;99439.19;5050701;28;20049;-27
2023/11/20 06:04:26;;;;;;;2.53;1.70;;;;;;;13.89;40.27;99460.28;5052875;28;20043;-27
2023/11/20 06:06:54;;;;;;;2.42;1.67;;;;;;;13.89;39.93;99455.75;5052371;28;20037;-27
2023/11/20 06:09:20;;;;;;;4.05;2.40;;;;;;;13.89;39.92;99455.75;5051137;28;20193;-27
2023/11/20 06:11:49;;;;;;;4.03;2.50;;;;;;;13.91;40.62;99447.50;5052414;28;20467;-28
2023/11/20 06:14:15;;;;;;;4.82;3.15;;;;;;;14.19;40.45;99454.81;5041326;28;20075;-29
2023/11/20 06:16:41;;;;;;;2.47;1.73;;;;;;;13.63;40.20;99427.63;5033351;28;20029;-28
2023/11/20 06:19:07;;;;;;;3.25;1.70;;;;;;;13.91;40.12;99457.41;5044714;28;20027;-28
2023/11/20 06:21:33;;;;;;;2.75;1.60;;;;;;;14.42;39.69;99461.19;5051250;28;20025;-27
2023/11/20 06:23:58;;;;;;;2.45;1.65;;;;;;;14.63;39.26;99465.94;5053358;28;20036;-27
2023/11/20 06:26:25;;;;;;;3.60;1.90;;;;;;;15.06;39.13;99463.84;5051250;28;20473;-27
2023/11/20 06:28:51;;;;;;;1.70;1.40;;;;;;;15.51;37.72;99465.69;5053438;28;20025;-28
2023/11/20 06:31:17;;;;;;;6.80;3.13;;;;;;;15.32;38.21;99483.88;5052231;28;20029;-27
2023/11/20 06:33:42;;;;;;;3.05;1.83;;;;;;;15.42;38.48;99492.13;5051710;28;20112;-28
2023/11/20 06:36:08;;;;;;;3.05;1.90;;;;;;;15.80;37.52;99484.44;5050594;28;20028;-28
2023/11/20 06:38:35;;;;;;;1.88;1.60;;;;;;;15.89;37.48;99480.28;5049693;28;20531;-27
2023/11/20 06:41:02;;;;;;;2.40;1.70;;;;;;;15.86;36.84;99483.47;5050524;28;20056;-28
2023/11/20 06:43:28;;;;;;;2.85;1.80;;;;;;;16.10;37.29;99484.09;5050415;28;20020;-29
2023/11/20 06:45:53;;;;;;;2.58;1.70;;;;;;;16.49;36.73;99494.06;5050145;28;20098;-32
2023/11/20 06:48:19;;;;;;;4.10;1.60;;;;;;;16.35;36.78;99480.94;5050803;28;20477;-27
2023/11/20 06:50:44;;;;;;;3.50;2.30;;;;;;;16.57;36.59;99474.81;5052070;28;20021;-28
2023/11/20 06:53:10;;;;;;;7.63;3.63;;;;;;;16.65;37.10;99473.56;5051941;28;20029;-27
2023/11/20 06:55:36;;;;;;;4.28;2.60;;;;;;;16.63;36.55;99475.69;5052261;28;20021;-28
2023/11/20 06:58:02;;;;;;;5.15;2.15;;;;;;;16.60;37.14;99458.19;5051973;28;20025;-28
2023/11/20 07:00:27;;;;;;;6.55;1.83;;;;;;;16.86;36.03;99467.38;5051915;28;20042;-27
2023/11/20 07:02:54;;;;;;;4.88;1.98;;;;;;;17.15;35.66;99462.63;5051858;28;20025;-27
2023/11/20 07:05:19;;;;;;;7.07;2.28;;;;;;;17.30;35.56;99459.25;5051844;28;20033;-28
2023/11/20 07:07:52;;;;;;;6.50;2.00;;;;;;;17.50;35.14;99461.31;5051851;28;20027;-28
2023/11/20 07:10:22;;;;;;;6.40;1.92;;;;;;;17.19;35.77;99461.03;5051801;28;20103;-28
2023/11/20 07:12:52;;;;;;;2.72;1.80;;;;;;;17.32;35.10;99462.47;5051649;28;20058;-29
2023/11/20 07:15:21;;;;;;;4.15;1.90;;;;;;;17.45;35.37;99458.56;5051584;28;20510;-27
2023/11/20 07:17:47;;;;;;;3.15;1.90;;;;;;;17.42;35.17;99456.41;5051606;28;20039;-27
2023/11/20 07:20:13;;;;;;;3.95;1.92;;;;;;;17.67;35.10;99463.03;5051654;28;20029;-30
2023/11/20 07:22:38;;;;;;;2.63;1.70;;;;;;;17.85;34.41;99457.31;5051826;28;20040;-28
2023/11/20 07:25:04;;;;;;;6.32;1.90;;;;;;;17.95;33.95;99460.09;5051622;28;20040;-28
2023/11/20 07:27:31;;;;;;;3.22;1.63;;;;;;;17.98;34.27;99464.13;5051313;28;20035;-28
2023/11/20 07:29:56;;;;;;;5.63;1.90;;;;;;;18.29;34.05;99467.81;5051300;28;20031;-30
2023/11/20 07:32:22;;;;;;;5.65;4.30;;;;;;;18.69;33.50;99473.66;5050992;28;20021;-27
2023/11/20 07:34:47;;;;;;;4.97;2.38;;;;;;;18.62;33.47;99475.78;5051584;28;20063;-29
2023/11/20 07:37:13;;;;;;;2.70;1.70;;;;;;;18.52;33.13;99476.56;5051135;28;20029;-28
2023/11/20 07:39:38;;;;;;;2.33;1.55;;;;;;;18.12;33.84;99478.75;5050808;28;20021;-27
2023/11/20 07:42:04;;;;;;;2.88;1.67;;;;;;;17.80;34.56;99465.34;5051173;28;20075;-29
2023/11/20 07:44:29;;;;;;;2.40;1.60;;;;;;;17.58;34.57;99466.22;5051124;28;20404;-28
2023/11/20 07:46:55;;;;;;;2.42;1.65;;;;;;;17.53;34.90;99454.59;5050722;28;20021;-27
2023/11/20 07:49:20;;;;;;;2.53;1.65;;;;;;;18.19;34.13;99445.41;5051237;28;20415;-29
2023/11/20 07:51:46;;;;;;;2.97;1.60;;;;;;;18.30;34.01;99439.81;5050807;28;20500;-28
2023/11/20 07:54:12;;;;;;;2.67;1.40;;;;;;;18.66;33.53;99434.59;5049316;28;20440;-28
2023/11/20 07:56:38;;;;;;;3.60;1.60;;;;;;;18.43;33.70;99433.16;5050390;28;20025;-28
2023/11/20 07:59:03;;;;;;;2.20;1.50;;;;;;;18.12;34.42;99438.38;5050253;28;20397;-27
2023/11/20 08:01:29;;;;;;;2.15;1.58;;;;;;;18.46;34.15;99437.19;5050557;28;20064;-28
2023/11/20 08:03:54;;;;;;;1.70;1.38;;;;;;;18.67;34.20;99446.97;5036291;28;20116;-30
2023/11/20 08:06:20;;;;;;;2.38;1.45;;;;;;;18.27;34.61;99437.63;5030726;28;20036;-28
2023/11/20 08:08:46;;;;;;;3.60;1.40;;;;;;;18.12;34.82;99438.38;5030523;28;20048;-27
2023/11/20 08:11:12;;;;;;;4.57;1.63;;;;;;;17.66;35.54;99426.47;5030598;28;20025;-26
2023/11/20 08:13:37;;;;;;;2.63;1.60;;;;;;;18.07;35.17;99422.19;5030344;28;20045;-28
2023/11/20 08:16:03;;;;;;;2.90;1.90;;;;;;;18.23;35.11;99428.47;5030480;28;20021;-26
2023/11/20 08:18:29;;;;;;;2.50;1.50;;;;;;;18.26;35.25;99413.66;5029054;28;20099;-27
2023/11/20 08:20:55;;;;;;;3.17;1.65;;;;;;;18.30;35.37;99407.50;5030552;28;20477;-28
2023/11/20 08:23:21;;;;;;;2.55;1.67;;;;;;;18.51;35.25;99402.19;5030304;28;20022;-28
2023/11/20 08:25:47;;;;;;;2.47;1.40;;;;;;;18.55;34.92;99395.22;5030283;28;20101;-27
2023/11/20 08:28:12;;;;;;;1.85;1.35;;;;;;;18.30;35.80;99395.94;5030526;28;20030;-29
2023/11/20 08:30:37;;;;;;;2.60;1.60;;;;;;;18.40;35.09;99397.84;5030113;28;20167;-27
2023/11/20 08:33:03;;;;;;;4.30;1.55;;;;;;;18.87;34.77;99397.75;5030198;28;20516;-27
2023/11/20 08:35:28;;;;;;;2.33;1.20;;;;;;;18.69;34.99;99399.00;5030436;28;20401;-27
2023/11/20 08:37:54;;;;;;;3.30;1.38;;;;;;;18.99;34.75;99394.81;5030502;28;20029;-28
2023/11/20 08:40:20;;;;;;;1.20;1.10;;;;;;;18.89;34.31;99389.41;5030380;28;20029;-26
2023/11/20 08:42:46;;;;;;;2.03;1.30;;;;;;;18.60;35.23;99399.78;5029962;28;20019;-29
2023/11/20 08:45:12;;;;;;;2.83;1.50;;;;;;;19.08;34.86;99403.19;5030311;28;20025;-29
2023/11/20 08:47:39;;;;;;;2.38;1.40;;;;;;;19.59;33.97;99397.81;5030352;28;20486;-28
2023/11/20 08:50:06;;;;;;;2.92;1.33;;;;;;;19.74;33.92;99394.28;5030877;28;20032;-27
2023/11/20 08:52:32;;;;;;;3.58;1.20;;;;;;;19.50;34.27;99397.53;5034120;28;20490;-26
2023/11/20 08:54:57;;;;;;;3.50;1.10;;;;;;;19.73;33.84;99389.97;5033892;28;20033;-29
2023/11/20 08:57:23;;;;;;;2.03;1.30;;;;;;;19.96;33.73;99382.38;5033686;28;20447;-35
2023/11/20 08:59:49;;;;;;;1.98;1.20;;;;;;;19.13;34.50;99366.25;5034109;28;20021;-28
2023/11/20 09:02:15;;;;;;;2.30;1.35;;;;;;;19.39;34.09;99371.63;5033190;28;20048;-27
2023/11/20 09:04:41;;;;;;;1.25;0.98;;;;;;;18.69;35.09;99369.38;5033713;28;20029;-29
2023/11/20 09:07:08;;;;;;;3.42;1.10;;;;;;;18.94;34.66;99354.34;5033976;28;20021;-29
2023/11/20 09:09:35;;;;;;;1.80;1.20;;;;;;;19.05;34.90;99350.59;5034035;28;20092;-29
2023/11/20 09:12:03;;;;;;;1.90;1.02;;;;;;;19.02;34.44;99353.84;5033511;28;20060;-27
2023/11/20 09:14:29;;;;;;;2.75;1.13;;;;;;;19.09;34.96;99353.56;5033088;28;20469;-27
2023/11/20 09:16:54;;;;;;;2.67;1.23;;;;;;;19.48;34.16;99339.53;5033459;28;20048;-27
2023/11/20 09:19:21;;;;;;;3.20;1.80;;;;;;;19.76;33.88;99338.13;5033403;28;20013;-28
2023/11/20 09:21:46;;;;;;;1.85;1.20;;;;;;;19.75;33.70;99328.44;5032965;28;20028;-27
2023/11/20 09:24:12;;;;;;;1.73;1.20;;;;;;;19.77;33.56;99336.25;5033338;28;20021;-27
2023/11/20 09:26:41;;;;;;;2.40;1.30;;;;;;;20.15;33.33;99332.06;5033213;28;20489;-27
2023/11/20 09:29:06;;;;;;;2.45;1.42;;;;;;;20.01;33.66;99328.34;5033296;28;20024;-26
2023/11/20 09:31:34;;;;;;;2.00;1.13;;;;;;;20.05;33.27;99329.44;5032980;28;20025;-27
2023/11/20 09:34:00;;;;;;;1.42;1.13;;;;;;;20.17;32.97;99343.41;5033345;28;20061;-26
2023/11/20 09:36:25;;;;;;;1.83;1.15;;;;;;;19.73;33.82;99334.09;5033124;28;20025;-27
2023/11/20 09:38:51;;;;;;;2.63;1.15;;;;;;;19.53;34.09;99334.94;5033134;28;20394;-28
2023/11/20 09:41:17;;;;;;;2.55;1.38;;;;;;;19.53;34.61;99345.72;5033223;28;20025;-27
2023/11/20 09:43:46;;;;;;;4.32;1.55;;;;;;;19.52;34.93;99332.50;5032919;28;20107;-30
2023/11/20 09:46:15;;;;;;;3.35;1.40;;;;;;;19.63;34.44;99331.41;5033550;28;20029;-32
2023/11/20 09:48:43;;;;;;;3.50;1.73;;;;;;;19.32;34.72;99317.13;5033345;28;20033;-28
2023/11/20 09:51:11;;;;;;;2.78;1.50;;;;;;;19.24;35.04;99323.88;5033367;28;20028;-27
2023/11/20 09:53:40;;;;;;;1.67;1.13;;;;;;;19.25;35.28;99320.13;5032601;28;20036;-28
2023/11/20 09:56:06;;;;;;;0.75;0.73;;;;;;;19.17;35.05;99317.16;5032845;28;20459;-28
2023/11/20 09:58:33;;;;;;;0.98;0.77;;;;;;;19.18;35.19;99313.38;5033139;28;20040;-27
2023/11/20 10:01:06;;;;;;;1.50;0.90;;;;;;;19.14;34.93;99310.41;5032315;28;20060;-30
2023/11/20 10:03:35;;;;;;;2.45;0.98;;;;;;;18.92;35.17;99302.59;5043234;28;20505;-28
2023/11/20 10:06:05;;;;;;;3.00;0.90;;;;;;;19.19;35.03;99302.34;5052562;28;20056;-27
2023/11/20 10:08:34;;;;;;;1.27;0.80;;;;;;;19.44;35.22;99306.06;5052345;28;20031;-25
2023/11/20 10:11:00;;;;;;;;;;;;;;;19.01;35.17;99308.25;5053207;28;20017;-26
2023/11/20 10:13:26;;;;;;;0.80;0.70;;;;;;;19.04;35.36;99313.09;5052714;28;20299;-27
2023/11/20 10:15:53;;;;;;;1.35;0.70;;;;;;;19.13;35.35;99306.91;5052722;28;20396;-28
2023/11/20 10:18:18;;;;;;;1.00;0.82;;;;;;;19.43;35.08;99301.75;5052055;28;20025;-29
2023/11/20 10:20:51;;;;;;;3.55;0.80;;;;;;;19.54;34.38;99296.06;5052081;28;20566;-27
2023/11/20 10:23:22;;;;;;;1.90;1.13;;;;;;;19.82;34.41;99299.25;5052319;28;20457;-27
2023/11/20 10:25:49;;;;;;;2.42;1.70;;;;;;;19.98;34.16;99302.69;5052242;28;20025;-27
2023/11/20 10:28:14;;;;;;;1.63;1.08;;;;;;;19.61;35.36;99303.06;5052311;28;20403;-29
2023/11/20 10:30:44;;;;;;;1.60;0.75;;;;;;;20.08;34.09;99301.84;5052086;28;20021;-27
2023/11/20 10:33:20;;;;;;;2.88;1.20;;;;;;;20.00;34.12;99303.22;5052067;28;20029;-27
2023/11/20 10:35:50;;;;;;;2.70;1.90;;;;;;;19.67;34.57;99296.59;5051874;28;20033;-26
2023/11/20 10:38:17;;;;;;;8.57;7.60;;;;;;;19.58;34.71;99298.22;5052180;28;20033;-28
2023/11/20 10:40:44;;;;;;;5.90;2.75;;;;;;;19.46;34.57;99301.22;5051838;28;20021;-28
2023/11/20 10:43:10;;;;;;;4.50;3.70;;;;;;;19.41;34.49;99299.31;5051972;28;20032;-28
2023/11/20 10:45:36;;;;;;;4.57;2.25;;;;;;;19.47;34.37;99294.72;5051478;28;20021;-28
2023/11/20 10:48:02;;;;;;;10.00;7.63;;;;;;;18.95;35.05;99294.78;5051585;28;20590;-28
2023/11/20 10:50:33;;;;;;;2.40;1.80;;;;;;;18.97;35.10;99293.72;5051700;28;20028;-27
2023/11/20 10:53:08;;;;;;;3.13;1.48;;;;;;;18.94;35.34;99295.03;5051707;28;20116;-30
2023/11/20 10:55:50;;;;;;;4.07;1.13;;;;;;;18.69;35.50;99283.13;5051666;28;20523;-27
2023/11/20 10:58:16;;;;;;;2.13;1.00;;;;;;;18.72;35.61;99279.91;5051615;28;20021;-27
2023/11/20 11:00:42;;;;;;;2.25;1.20;;;;;;;18.44;36.17;99283.09;5051464;28;20025;-27
2023/11/20 11:03:14;;;;;;;2.63;0.85;;;;;;;18.92;35.55;99278.31;5051537;28;20060;-26
2023/11/20 11:05:40;;;;;;;3.13;1.05;;;;;;;18.88;35.38;99269.16;5051531;28;20039;-27
2023/11/20 11:08:09;;;;;;;2.85;1.00;;;;;;;18.53;36.01;99260.75;5051493;28;20028;-27
2023/11/20 11:10:43;;;;;;;1.42;0.82;;;;;;;18.12;36.23;99251.78;5051571;28;20043;-27
2023/11/20 11:13:10;;;;;;;1.25;1.10;;;;;;;18.47;35.86;99279.88;5050385;28;20078;-27
2023/11/20 11:15:36;;;;;;;1.45;0.90;;;;;;;18.09;36.10;99266.59;5051210;28;20028;-28
2023/11/20 11:18:04;;;;;;;1.48;1.00;;;;;;;18.26;36.30;99281.69;5051396;28;20098;-28
2023/11/20 11:20:42;;;;;;;1.42;1.02;;;;;;;18.27;36.02;99286.81;5051292;28;20021;-29
2023/11/20 11:23:11;;;;;;;1.67;0.90;;;;;;;18.49;35.50;99277.72;5051380;28;20059;-30
2023/11/20 11:25:47;;;;;;;1.92;1.13;;;;;;;18.73;35.10;99286.09;5051275;28;20029;-27
2023/11/20 11:28:17;;;;;;;2.08;1.30;;;;;;;18.67;35.15;99276.41;5051089;28;20024;-28
2023/11/20 11:30:44;;;;;;;1.42;0.98;;;;;;;18.66;35.01;99267.50;5051107;28;20127;-29